createdAt,value
2019-03-19T00:01:25.897Z,79.37
2019-03-19T00:03:53.327Z,79.23
2019-03-19T00:06:20.831Z,79.40
2019-03-19T00:08:48.332Z,79.54
2019-03-19T00:11:15.727Z,79.69
2019-03-19T00:13:43.172Z,79.78
2019-03-19T00:16:10.542Z,79.93
2019-03-19T00:18:38.959Z,80.01
2019-03-19T00:21:06.326Z,80.26
2019-03-19T00:23:33.796Z,80.22
2019-03-19T00:26:01.666Z,80.33
2019-03-19T00:28:31.005Z,80.39
2019-03-19T00:30:58.386Z,80.41
2019-03-19T00:33:27.199Z,80.45
2019-03-19T00:35:54.568Z,80.51
2019-03-19T00:38:22.249Z,80.59
2019-03-19T00:40:49.607Z,80.44
2019-03-19T00:43:17.022Z,80.65
2019-03-19T00:45:44.477Z,80.67
2019-03-19T00:48:14.996Z,80.65
2019-03-19T00:50:43.541Z,80.77
2019-03-19T00:53:13.497Z,80.76
2019-03-19T00:55:41.240Z,80.90
2019-03-19T00:58:08.711Z,80.99
2019-03-19T01:00:36.141Z,80.93
2019-03-19T01:03:03.646Z,81.01
2019-03-19T01:05:31.111Z,81.21
2019-03-19T01:08:01.686Z,81.03
2019-03-19T01:10:29.119Z,81.07
2019-03-19T01:12:56.491Z,81.29
2019-03-19T01:15:24.191Z,81.26
2019-03-19T01:17:51.571Z,81.32
2019-03-19T01:20:19.071Z,81.47
2019-03-19T01:22:46.416Z,81.59
2019-03-19T01:25:13.936Z,81.83
2019-03-19T01:27:41.326Z,81.97
2019-03-19T01:30:09.716Z,82.11
2019-03-19T01:32:37.121Z,82.01
2019-03-19T01:35:04.914Z,82.20
2019-03-19T01:37:32.392Z,82.37
2019-03-19T01:39:59.841Z,82.52
2019-03-19T01:42:27.235Z,82.39
2019-03-19T01:44:56.758Z,82.46
2019-03-19T01:47:24.667Z,82.42
2019-03-19T01:49:52.147Z,82.23
2019-03-19T01:52:19.550Z,82.52
2019-03-19T01:54:47.023Z,82.72
2019-03-19T01:57:16.413Z,82.55
2019-03-19T01:59:43.896Z,82.58
2019-03-19T02:02:11.357Z,82.62
2019-03-19T02:04:38.857Z,82.68
2019-03-19T02:07:06.258Z,82.71
2019-03-19T02:09:33.767Z,82.47
2019-03-19T02:12:01.157Z,82.59
2019-03-19T02:14:28.604Z,82.57
2019-03-19T02:16:55.998Z,82.48
2019-03-19T02:19:23.493Z,82.58
2019-03-19T02:21:50.933Z,82.63
2019-03-19T02:24:18.368Z,82.51
2019-03-19T02:26:45.758Z,82.38
2019-03-19T02:29:13.458Z,82.26
2019-03-19T02:31:40.854Z,82.20
2019-03-19T02:34:08.254Z,82.50
2019-03-19T02:36:35.687Z,82.64
2019-03-19T02:39:03.702Z,82.57
2019-03-19T02:41:31.130Z,82.97
2019-03-19T02:43:59.633Z,82.86
2019-03-19T02:46:29.972Z,82.90
2019-03-19T02:48:57.410Z,83.05
2019-03-19T02:51:24.871Z,83.19
2019-03-19T02:53:52.270Z,83.26
2019-03-19T02:56:31.989Z,83.37
2019-03-19T02:58:49.146Z,83.27
2019-03-19T03:01:16.587Z,83.55
2019-03-19T03:03:44.005Z,83.39
2019-03-19T03:06:11.453Z,83.57
2019-03-19T03:08:38.901Z,83.57
2019-03-19T03:11:06.348Z,83.66
2019-03-19T03:13:33.785Z,83.59
2019-03-19T03:16:01.228Z,83.97
2019-03-19T03:18:28.874Z,83.86
2019-03-19T03:20:56.459Z,83.71
2019-03-19T03:23:23.867Z,83.77
2019-03-19T03:25:51.779Z,83.91
2019-03-19T03:28:22.133Z,84.13
2019-03-19T03:30:49.627Z,84.15
2019-03-19T03:33:17.095Z,84.10
2019-03-19T03:35:47.081Z,84.15
2019-03-19T03:38:14.533Z,84.13
2019-03-19T03:40:41.967Z,84.44
2019-03-19T03:43:09.374Z,84.22
2019-03-19T03:45:36.820Z,84.14
2019-03-19T03:48:04.406Z,84.18
2019-03-19T03:50:31.901Z,84.29
2019-03-19T03:52:59.298Z,84.17
2019-03-19T03:55:26.778Z,84.22
2019-03-19T03:57:54.194Z,84.38
2019-03-19T04:00:21.629Z,84.22
2019-03-19T04:02:49.063Z,84.28
2019-03-19T04:05:16.674Z,84.09
2019-03-19T04:07:44.088Z,83.96
2019-03-19T04:10:11.591Z,84.13
2019-03-19T04:12:39.029Z,84.12
2019-03-19T04:15:07.638Z,84.13
2019-03-19T04:17:35.151Z,84.24
2019-03-19T04:20:02.646Z,84.19
2019-03-19T04:22:30.169Z,84.28
2019-03-19T04:24:57.695Z,84.40
2019-03-19T04:27:25.154Z,84.33
2019-03-19T04:29:53.032Z,84.18
2019-03-19T04:32:20.473Z,84.32
2019-03-19T04:34:47.933Z,84.32
2019-03-19T04:37:15.358Z,84.47
2019-03-19T04:39:42.754Z,84.51
2019-03-19T04:42:10.168Z,84.58
2019-03-19T04:44:37.608Z,84.72
2019-03-19T04:47:05.196Z,84.82
2019-03-19T04:49:32.707Z,84.83
2019-03-19T04:52:00.173Z,84.91
2019-03-19T04:54:28.683Z,84.79
2019-03-19T04:56:56.254Z,84.75
2019-03-19T04:59:23.688Z,84.89
2019-03-19T05:01:51.261Z,84.87
2019-03-19T05:04:18.792Z,85.03
2019-03-19T05:06:46.248Z,85.17
2019-03-19T05:09:13.648Z,85.07
2019-03-19T05:11:41.187Z,85.27
2019-03-19T05:14:08.598Z,85.50
2019-03-19T05:16:38.228Z,85.57
2019-03-19T05:19:05.887Z,85.89
2019-03-19T05:21:33.832Z,85.88
2019-03-19T05:24:01.537Z,85.84
2019-03-19T05:26:29.268Z,86.80
2019-03-19T05:28:56.724Z,86.57
2019-03-19T05:31:24.281Z,86.58
2019-03-19T05:33:52.315Z,86.83
2019-03-19T05:36:19.753Z,86.52
2019-03-19T05:38:47.185Z,86.75
2019-03-19T05:41:16.540Z,86.61
2019-03-19T05:43:43.977Z,86.85
2019-03-19T05:46:11.412Z,85.71
2019-03-19T05:48:38.841Z,85.59
2019-03-19T05:51:09.332Z,85.50
2019-03-19T05:53:36.773Z,84.98
2019-03-19T05:56:04.285Z,84.18
2019-03-19T05:58:32.059Z,83.65
2019-03-19T06:00:59.468Z,82.30
2019-03-19T06:03:26.967Z,81.42
2019-03-19T06:05:54.472Z,80.31
2019-03-19T06:08:22.017Z,78.84
2019-03-19T06:10:49.664Z,77.37
2019-03-19T06:13:18.727Z,75.59
2019-03-19T06:16:37.891Z,74.79
2019-03-19T06:19:40.673Z,73.22
2019-03-19T06:26:20.318Z,70.05
2019-03-19T06:29:31.112Z,68.62
2019-03-19T06:32:43.781Z,67.09
2019-03-19T06:35:24.468Z,66.80
2019-03-19T06:38:02.002Z,65.47
2019-03-19T06:40:37.494Z,65.48
2019-03-19T06:43:15.926Z,65.29
2019-03-19T06:46:27.522Z,64.56
2019-03-19T06:49:10.195Z,62.90
2019-03-19T06:51:47.542Z,61.66
2019-03-19T06:54:33.554Z,61.88
2019-03-19T06:57:06.432Z,60.94
2019-03-19T06:59:45.391Z,62.85
2019-03-19T07:02:18.813Z,64.61
2019-03-19T07:04:46.197Z,66.86
2019-03-19T07:07:13.657Z,68.91
2019-03-19T07:09:41.088Z,69.67
2019-03-19T07:12:08.513Z,66.90
2019-03-19T07:14:36.198Z,65.36
2019-03-19T07:17:03.712Z,62.57
2019-03-19T07:19:31.133Z,60.63
2019-03-19T07:21:58.757Z,60.36
2019-03-19T07:24:28.318Z,61.15
2019-03-19T07:26:55.840Z,62.07
2019-03-19T07:29:23.278Z,63.54
2019-03-19T07:31:50.672Z,65.88
2019-03-19T07:34:18.138Z,67.32
2019-03-19T07:36:45.537Z,68.84
2019-03-19T07:39:13.027Z,69.07
2019-03-19T07:41:40.433Z,66.00
2019-03-19T07:44:07.920Z,63.77
2019-03-19T07:46:35.367Z,63.24
2019-03-19T07:49:05.593Z,62.89
2019-03-19T07:51:33.008Z,62.12
2019-03-19T07:54:01.722Z,62.01
2019-03-19T07:56:29.173Z,62.63
2019-03-19T07:58:56.637Z,62.11
2019-03-19T08:01:24.767Z,60.64
2019-03-19T08:03:52.443Z,58.72
2019-03-19T08:06:19.827Z,57.46
2019-03-19T08:08:47.307Z,56.36
2019-03-19T08:11:16.721Z,54.58
2019-03-19T08:13:44.362Z,53.33
2019-03-19T08:16:11.832Z,52.38
2019-03-19T08:18:39.312Z,52.72
2019-03-19T08:21:06.733Z,51.17
2019-03-19T08:23:35.112Z,49.76
2019-03-19T08:26:02.865Z,49.14
2019-03-19T08:28:30.612Z,50.36
2019-03-19T08:30:58.282Z,50.39
2019-03-19T08:33:26.006Z,49.99
2019-03-19T08:35:53.652Z,50.01
2019-03-19T08:38:21.135Z,49.93
2019-03-19T08:40:51.103Z,50.31
2019-03-19T08:43:20.396Z,50.14
2019-03-19T08:45:47.972Z,49.29
2019-03-19T08:48:15.455Z,50.74
2019-03-19T08:50:42.879Z,49.78
2019-03-19T08:53:11.420Z,49.87
2019-03-19T08:55:39.312Z,49.08
2019-03-19T08:58:09.559Z,50.77
2019-03-19T09:00:37.353Z,50.71
2019-03-19T09:03:04.788Z,53.43
2019-03-19T09:05:32.263Z,54.54
2019-03-19T09:08:00.042Z,57.85
2019-03-19T09:10:27.592Z,57.67
2019-03-19T09:12:54.992Z,59.85
2019-03-19T09:15:22.538Z,59.50
2019-03-19T09:17:49.938Z,59.74
2019-03-19T09:20:18.687Z,61.09
2019-03-19T09:22:46.478Z,61.24
2019-03-19T09:25:14.116Z,60.55
2019-03-19T09:27:41.754Z,61.54
2019-03-19T09:30:12.084Z,62.17
2019-03-19T09:32:41.314Z,62.24
2019-03-19T09:35:09.074Z,63.34
2019-03-19T09:37:44.746Z,63.24
2019-03-19T09:40:17.053Z,63.77
2019-03-19T09:42:49.104Z,63.69
2019-03-19T09:45:17.534Z,62.92
2019-03-19T09:47:45.238Z,63.35
2019-03-19T09:50:13.779Z,63.43
2019-03-19T09:52:43.996Z,64.63
2019-03-19T09:55:12.305Z,64.03
2019-03-19T09:57:39.917Z,64.08
2019-03-19T10:00:10.131Z,64.01
2019-03-19T10:02:37.793Z,64.99
2019-03-19T10:05:05.462Z,64.53
2019-03-19T10:07:33.056Z,64.14
2019-03-19T10:10:00.693Z,63.28
2019-03-19T10:12:28.363Z,62.98
2019-03-19T10:14:56.094Z,61.93
2019-03-19T10:17:23.702Z,64.01
2019-03-19T10:19:51.322Z,64.46
2019-03-19T10:22:18.881Z,60.86
2019-03-19T10:24:46.533Z,62.19
2019-03-19T10:27:15.330Z,62.11
2019-03-19T10:29:43.339Z,60.19
2019-03-19T10:32:10.979Z,61.29
2019-03-19T10:34:38.631Z,61.21
2019-03-19T10:37:06.288Z,60.12
2019-03-19T10:39:33.990Z,59.61
2019-03-19T10:42:01.547Z,57.72
2019-03-19T10:44:29.322Z,56.92
2019-03-19T10:46:56.888Z,58.48
2019-03-19T10:49:24.516Z,58.67
2019-03-19T10:51:52.109Z,58.88
2019-03-19T10:54:19.710Z,59.35
2019-03-19T10:56:47.581Z,59.47
2019-03-19T10:59:17.087Z,58.29
2019-03-19T11:01:45.039Z,57.05
2019-03-19T11:04:14.893Z,57.53
2019-03-19T11:06:43.151Z,56.47
2019-03-19T11:09:10.792Z,55.72
2019-03-19T11:11:38.270Z,53.58
2019-03-19T11:14:05.901Z,53.79
2019-03-19T11:16:33.364Z,55.06
2019-03-19T11:19:00.920Z,54.16
2019-03-19T11:21:28.554Z,50.08
2019-03-19T11:23:56.052Z,50.18
2019-03-19T11:26:23.680Z,50.12
2019-03-19T11:28:51.418Z,50.73
2019-03-19T11:31:19.133Z,49.97
2019-03-19T11:33:47.839Z,48.73
2019-03-19T11:36:16.893Z,49.42
2019-03-19T11:38:48.573Z,49.77
2019-03-19T11:41:16.188Z,50.76
2019-03-19T11:43:43.933Z,51.06
2019-03-19T11:46:11.632Z,51.16
2019-03-19T11:48:39.520Z,51.88
2019-03-19T11:51:10.571Z,52.56
2019-03-19T11:53:38.291Z,52.36
2019-03-19T11:56:06.112Z,52.87
2019-03-19T11:58:33.953Z,52.77
2019-03-19T12:01:01.685Z,53.35
2019-03-19T12:03:29.279Z,53.00
2019-03-19T12:05:56.921Z,53.15
2019-03-19T12:08:24.472Z,52.90
2019-03-19T12:10:52.101Z,52.11
2019-03-19T12:13:19.741Z,52.65
2019-03-19T12:15:47.708Z,51.11
2019-03-19T12:18:15.232Z,51.24
2019-03-19T12:20:42.847Z,50.86
2019-03-19T12:23:10.456Z,51.23
2019-03-19T12:25:38.083Z,50.93
2019-03-19T12:28:06.252Z,51.34
2019-03-19T12:30:33.936Z,51.61
2019-03-19T12:33:01.473Z,52.05
2019-03-19T12:35:30.713Z,52.41
2019-03-19T12:37:58.512Z,52.63
2019-03-19T12:40:36.272Z,52.80
2019-03-19T12:42:55.632Z,53.16
2019-03-19T12:45:24.147Z,53.37
2019-03-19T12:47:51.854Z,53.02
2019-03-19T12:50:19.520Z,52.76
2019-03-19T12:52:47.233Z,52.29
2019-03-19T12:55:14.953Z,51.69
2019-03-19T12:57:42.480Z,51.13
2019-03-19T13:00:15.577Z,50.23
2019-03-19T13:02:43.133Z,49.03
2019-03-19T13:05:10.815Z,48.13
2019-03-19T13:07:38.392Z,49.48
2019-03-19T13:10:07.295Z,48.60
2019-03-19T13:12:34.852Z,48.31
2019-03-19T13:15:02.432Z,48.81
2019-03-19T13:17:30.012Z,48.00
2019-03-19T13:19:57.552Z,48.53
2019-03-19T13:22:25.209Z,49.12
2019-03-19T13:24:53.253Z,48.91
2019-03-19T13:27:20.892Z,49.05
2019-03-19T13:29:52.073Z,49.80
2019-03-19T13:32:19.652Z,51.43
2019-03-19T13:34:47.394Z,51.30
2019-03-19T13:37:15.033Z,51.20
2019-03-19T13:39:42.673Z,51.69
2019-03-19T13:42:10.392Z,51.59
2019-03-19T13:44:38.012Z,51.45
2019-03-19T13:47:05.933Z,50.59
2019-03-19T13:49:33.752Z,50.48
2019-03-19T13:52:01.773Z,49.22
2019-03-19T13:54:29.632Z,50.01
2019-03-19T13:56:57.532Z,50.55
2019-03-19T13:59:25.253Z,50.90
2019-03-19T14:01:53.411Z,51.85
2019-03-19T14:04:22.302Z,49.80
2019-03-19T14:06:50.412Z,49.84
2019-03-19T14:09:18.112Z,49.01
2019-03-19T14:11:45.692Z,49.86
2019-03-19T14:14:13.251Z,50.47
2019-03-19T14:16:40.994Z,51.00
2019-03-19T14:19:08.552Z,51.18
2019-03-19T14:21:36.192Z,49.67
2019-03-19T14:24:03.792Z,50.99
2019-03-19T14:26:31.455Z,51.25
2019-03-19T14:28:59.731Z,50.68
2019-03-19T14:31:30.273Z,51.11
2019-03-19T14:33:57.871Z,50.98
2019-03-19T14:36:26.595Z,50.90
2019-03-19T14:38:55.474Z,51.95
2019-03-19T14:41:23.192Z,52.35
2019-03-19T14:43:51.534Z,52.31
2019-03-19T14:46:19.236Z,52.11
2019-03-19T14:48:47.011Z,52.75
2019-03-19T14:51:14.553Z,51.66
2019-03-19T14:53:42.172Z,51.78
2019-03-19T14:56:09.827Z,52.04
2019-03-19T14:58:37.412Z,51.70
2019-03-19T15:01:05.235Z,52.09
2019-03-19T15:03:32.812Z,51.55
2019-03-19T15:06:00.495Z,52.18
2019-03-19T15:08:28.236Z,52.58
2019-03-19T15:10:55.774Z,51.99
2019-03-19T15:13:23.373Z,51.97
2019-03-19T15:15:51.232Z,51.43
2019-03-19T15:18:18.932Z,50.96
2019-03-19T15:20:46.653Z,50.96
2019-03-19T15:23:14.592Z,51.73
2019-03-19T15:25:42.533Z,51.62
2019-03-19T15:28:10.594Z,52.21
2019-03-19T15:30:38.312Z,52.08
2019-03-19T15:33:06.013Z,51.01
2019-03-19T15:35:33.614Z,50.50
2019-03-19T15:38:01.332Z,51.52
2019-03-19T15:40:29.134Z,51.06
2019-03-19T15:42:56.912Z,51.81
2019-03-19T15:45:24.656Z,52.02
2019-03-19T15:47:52.615Z,51.51
2019-03-19T15:50:20.436Z,51.73
2019-03-19T15:52:48.474Z,52.34
2019-03-19T15:55:16.472Z,51.88
2019-03-19T15:57:44.324Z,51.54
2019-03-19T16:00:14.545Z,51.77
2019-03-19T16:02:42.307Z,51.53
2019-03-19T16:05:10.310Z,51.95
2019-03-19T16:07:38.137Z,52.39
2019-03-19T16:10:06.149Z,51.97
2019-03-19T16:12:33.870Z,52.24
2019-03-19T16:15:02.108Z,51.98
2019-03-19T16:17:29.853Z,52.42
2019-03-19T16:19:57.438Z,52.20
2019-03-19T16:22:25.364Z,51.92
2019-03-19T16:24:53.047Z,51.82
2019-03-19T16:27:20.772Z,52.04
2019-03-19T16:29:48.486Z,51.28
2019-03-19T16:32:16.347Z,51.33
2019-03-19T16:34:44.018Z,51.77
2019-03-19T16:37:11.783Z,51.69
2019-03-19T16:39:39.662Z,51.58
2019-03-19T16:42:07.718Z,51.59
2019-03-19T16:44:35.587Z,50.74
2019-03-19T16:47:03.729Z,51.13
2019-03-19T16:49:31.473Z,52.20
2019-03-19T16:51:59.272Z,52.44
2019-03-19T16:54:27.263Z,52.66
2019-03-19T16:56:55.168Z,52.89
2019-03-19T16:59:22.978Z,52.28
2019-03-19T17:02:01.090Z,52.18
2019-03-19T17:04:20.613Z,52.86
2019-03-19T17:06:48.555Z,52.84
2019-03-19T17:09:16.507Z,53.42
2019-03-19T17:11:44.333Z,53.93
2019-03-19T17:14:12.213Z,54.52
2019-03-19T17:16:39.953Z,54.90
2019-03-19T17:19:08.327Z,54.76
2019-03-19T17:21:40.910Z,54.96
2019-03-19T17:24:08.648Z,55.71
2019-03-19T17:26:36.533Z,55.61
2019-03-19T17:29:04.322Z,56.17
2019-03-19T17:31:32.257Z,56.42
2019-03-19T17:34:00.232Z,57.33
2019-03-19T17:36:30.783Z,57.80
2019-03-19T17:38:58.833Z,58.44
2019-03-19T17:41:26.762Z,58.53
2019-03-19T17:43:54.494Z,58.75
2019-03-19T17:46:23.502Z,59.68
2019-03-19T17:54:57.737Z,61.33
2019-03-19T17:57:41.032Z,60.86
2019-03-19T18:00:10.748Z,61.45
2019-03-19T18:02:39.568Z,62.48
2019-03-19T18:05:07.802Z,63.19
2019-03-19T18:07:38.910Z,62.59
2019-03-19T18:10:07.704Z,62.92
2019-03-19T18:12:36.589Z,64.03
2019-03-19T18:15:07.028Z,64.17
2019-03-19T18:17:34.953Z,64.61
2019-03-19T18:20:03.331Z,64.63
2019-03-19T18:22:31.032Z,65.09
2019-03-19T18:24:59.108Z,64.78
2019-03-19T18:27:27.148Z,65.79
2019-03-19T18:29:55.601Z,66.13
2019-03-19T18:32:34.299Z,65.34
2019-03-19T18:34:53.808Z,64.19
2019-03-19T18:37:21.678Z,65.90
2019-03-19T18:39:49.866Z,64.85
2019-03-19T18:42:17.757Z,66.48
2019-03-19T18:44:45.935Z,65.76
2019-03-19T18:47:13.857Z,65.79
2019-03-19T18:49:41.797Z,66.25
2019-03-19T18:52:09.683Z,67.06
2019-03-19T18:54:37.807Z,66.65
2019-03-19T18:57:05.692Z,66.29
2019-03-19T18:59:33.575Z,66.51
2019-03-19T19:02:01.562Z,66.72
2019-03-19T19:04:29.439Z,66.56
2019-03-19T19:06:57.307Z,66.64
2019-03-19T19:09:25.255Z,66.84
2019-03-19T19:11:53.462Z,66.92
2019-03-19T19:14:21.462Z,67.36
2019-03-19T19:16:49.432Z,67.36
2019-03-19T19:19:20.603Z,67.49
2019-03-19T19:21:48.803Z,69.08
2019-03-19T19:24:17.142Z,70.20
2019-03-19T19:26:45.133Z,70.98
2019-03-19T19:29:15.212Z,71.28
2019-03-19T19:31:43.553Z,71.68
2019-03-19T19:34:11.567Z,72.18
2019-03-19T19:36:41.958Z,72.55
2019-03-19T19:39:09.817Z,72.78
2019-03-19T19:41:38.059Z,72.19
2019-03-19T19:44:06.212Z,72.46
2019-03-19T19:46:34.272Z,73.06
2019-03-19T19:49:13.572Z,73.69
2019-03-19T19:55:20.053Z,73.12
2019-03-19T19:57:50.971Z,73.62
2019-03-19T20:00:19.018Z,73.92
2019-03-19T20:02:47.111Z,74.08
2019-03-19T20:05:16.468Z,74.17
2019-03-19T20:11:38.694Z,73.77
2019-03-19T20:13:52.702Z,74.08
2019-03-19T20:17:01.120Z,74.28
2019-03-19T20:19:32.102Z,74.37
2019-03-19T20:22:36.331Z,74.41
2019-03-19T20:25:48.932Z,74.96
2019-03-19T20:32:32.066Z,75.23
2019-03-19T20:35:40.797Z,75.70
2019-03-19T20:38:45.517Z,75.82
2019-03-19T20:45:29.622Z,76.18
2019-03-19T20:56:05.295Z,76.62
2019-03-19T21:02:04.757Z,76.97
2019-03-19T21:05:41.908Z,77.17
2019-03-19T21:09:29.921Z,76.68
2019-03-19T21:15:28.216Z,77.23
2019-03-19T21:18:01.862Z,77.70
2019-03-19T21:46:09.939Z,77.70
2019-03-19T21:55:29.898Z,77.44
2019-03-19T22:06:46.516Z,76.74
2019-03-19T22:35:35.267Z,71.56
2019-03-19T23:02:30.273Z,71.88
2019-03-19T23:12:25.443Z,72.01
2019-03-19T23:15:20.782Z,71.82
2019-03-19T23:22:11.751Z,72.37
2019-03-19T23:51:27.917Z,68.04
